createdAt,value
2018-12-14T00:00:59.963Z,0
2018-12-14T00:02:00.367Z,0
2018-12-14T00:03:00.613Z,0
2018-12-14T00:04:01.294Z,0
2018-12-14T00:05:01.702Z,0
2018-12-14T00:06:02.975Z,0
2018-12-14T00:07:03.768Z,0
2018-12-14T00:08:03.902Z,0
2018-12-14T00:09:04.584Z,0
2018-12-14T00:10:04.987Z,0
2018-12-14T00:11:06.395Z,0
2018-12-14T00:12:07.799Z,0
2018-12-14T00:13:08.884Z,0
2018-12-14T00:14:09.289Z,0
2018-12-14T00:15:09.970Z,0
2018-12-14T00:16:10.935Z,0
2018-12-14T00:17:11.894Z,0
2018-12-14T00:18:12.300Z,0
2018-12-14T00:19:13.816Z,0
2018-12-14T00:20:14.053Z,0
2018-12-14T00:21:14.736Z,0
2018-12-14T00:22:15.199Z,0
2018-12-14T00:23:15.572Z,0
2018-12-14T00:24:16.260Z,0
2018-12-14T00:25:16.386Z,0
2018-12-14T00:26:17.513Z,0
2018-12-14T00:27:17.920Z,0
2018-12-14T00:28:19.604Z,0
2018-12-14T00:29:20.007Z,0
2018-12-14T00:30:21.407Z,0
2018-12-14T00:31:21.813Z,0
2018-12-14T00:32:22.941Z,0
2018-12-14T00:33:24.307Z,0
2018-12-14T00:34:26.270Z,0
2018-12-14T00:35:26.397Z,0
2018-12-14T00:36:27.533Z,0
2018-12-14T00:37:28.654Z,0
2018-12-14T00:38:29.616Z,0
2018-12-14T00:39:29.743Z,0
2018-12-14T00:40:30.145Z,0
2018-12-14T00:41:30.548Z,0
2018-12-14T00:42:31.975Z,0
2018-12-14T00:43:32.798Z,0
2018-12-14T00:44:33.757Z,0
2018-12-14T00:45:33.883Z,0
2018-12-14T00:46:35.006Z,0
2018-12-14T00:47:36.134Z,0
2018-12-14T00:48:36.536Z,0
2018-12-14T00:49:37.213Z,0
2018-12-14T00:50:37.628Z,0
2018-12-14T00:51:39.023Z,0
2018-12-14T00:52:39.148Z,0
2018-12-14T00:53:40.019Z,0
2018-12-14T00:54:40.699Z,0
2018-12-14T00:55:41.658Z,0
2018-12-14T00:56:42.101Z,0
2018-12-14T00:57:42.783Z,0
2018-12-14T00:58:43.211Z,0
2018-12-14T00:59:43.336Z,0
2018-12-14T01:00:44.015Z,0
2018-12-14T01:01:44.415Z,0
2018-12-14T01:02:45.099Z,0
2018-12-14T01:03:45.764Z,0
2018-12-14T01:04:46.165Z,0
2018-12-14T01:05:47.122Z,0
2018-12-14T01:06:47.250Z,0
2018-12-14T01:07:48.375Z,0
2018-12-14T01:08:49.055Z,0
2018-12-14T01:09:49.789Z,0
2018-12-14T01:10:50.194Z,0
2018-12-14T01:11:50.388Z,0
2018-12-14T01:12:51.532Z,0
2018-12-14T01:13:52.371Z,0
2018-12-14T01:14:53.784Z,0
2018-12-14T01:15:54.201Z,0
2018-12-14T01:16:54.897Z,0
2018-12-14T01:17:56.598Z,0
2018-12-14T01:18:57.286Z,0
2018-12-14T01:19:58.267Z,0
2018-12-14T01:20:58.964Z,0
2018-12-14T01:21:59.380Z,0
2018-12-14T01:23:00.795Z,0
2018-12-14T01:24:01.895Z,0
2018-12-14T01:25:02.313Z,0
2018-12-14T01:26:03.007Z,0
2018-12-14T01:27:03.980Z,0
2018-12-14T01:28:04.394Z,0
2018-12-14T01:29:05.533Z,0
2018-12-14T01:30:06.501Z,0
2018-12-14T01:31:07.471Z,0
2018-12-14T01:32:08.228Z,0
2018-12-14T01:33:08.650Z,0
2018-12-14T01:34:10.025Z,0
2018-12-14T01:35:10.217Z,0
2018-12-14T01:36:10.692Z,0
2018-12-14T01:37:11.670Z,0
2018-12-14T01:38:11.640Z,0
2018-12-14T01:39:12.778Z,0
2018-12-14T01:40:13.469Z,0
2018-12-14T01:41:14.717Z,0
2018-12-14T01:42:14.410Z,0
2018-12-14T01:43:15.107Z,0
2018-12-14T01:44:16.512Z,0
2018-12-14T01:45:16.651Z,0
2018-12-14T01:46:17.621Z,0
2018-12-14T01:47:17.759Z,0
2018-12-14T01:48:19.336Z,0
2018-12-14T01:49:20.307Z,0
2018-12-14T01:50:20.443Z,0
2018-12-14T01:51:21.134Z,0
2018-12-14T01:52:21.554Z,0
2018-12-14T01:53:23.257Z,0
2018-12-14T01:54:23.841Z,0
2018-12-14T01:55:24.538Z,0
2018-12-14T01:56:24.957Z,0
2018-12-14T01:57:25.372Z,0
2018-12-14T01:58:25.791Z,0
2018-12-14T01:59:26.277Z,0
2018-12-14T02:00:26.413Z,0
2018-12-14T02:01:28.105Z,0
2018-12-14T02:02:28.519Z,0
2018-12-14T02:03:29.234Z,0
2018-12-14T02:04:30.051Z,0
2018-12-14T02:05:31.084Z,0
2018-12-14T02:06:31.778Z,0
2018-12-14T02:07:32.747Z,0
2018-12-14T02:08:33.724Z,0
2018-12-14T02:09:34.143Z,0
2018-12-14T02:10:35.111Z,0
2018-12-14T02:11:35.585Z,0
2018-12-14T02:12:36.998Z,0
2018-12-14T02:13:37.972Z,0
2018-12-14T02:14:38.112Z,0
2018-12-14T02:15:39.088Z,0
2018-12-14T02:16:39.504Z,0
2018-12-14T02:17:40.262Z,0
2018-12-14T02:18:40.679Z,0
2018-12-14T02:19:41.710Z,0
2018-12-14T02:20:42.680Z,0
2018-12-14T02:21:43.154Z,0
2018-12-14T02:22:44.126Z,0
2018-12-14T02:23:44.543Z,0
2018-12-14T02:24:45.111Z,0
2018-12-14T02:25:46.082Z,0
2018-12-14T02:26:46.054Z,0
2018-12-14T02:27:46.472Z,0
2018-12-14T02:28:47.892Z,0
2018-12-14T02:29:48.303Z,0
2018-12-14T02:30:49.337Z,0
2018-12-14T02:31:50.585Z,0
2018-12-14T02:32:52.113Z,0
2018-12-14T02:33:52.526Z,0
2018-12-14T02:34:54.488Z,0
2018-12-14T02:35:55.028Z,0
2018-12-14T02:36:56.276Z,0
2018-12-14T02:37:57.315Z,0
2018-12-14T02:38:57.131Z,0
2018-12-14T02:39:57.268Z,0
2018-12-14T02:40:58.518Z,0
2018-12-14T02:41:59.216Z,0
2018-12-14T02:42:59.914Z,0
2018-12-14T02:44:00.395Z,0
2018-12-14T02:45:02.088Z,0
2018-12-14T02:46:02.347Z,0
2018-12-14T02:47:03.322Z,0
2018-12-14T02:48:04.018Z,0
2018-12-14T02:49:04.718Z,0
2018-12-14T02:50:05.241Z,0
2018-12-14T02:51:05.944Z,0
2018-12-14T02:52:06.928Z,0
2018-12-14T02:53:08.471Z,0
2018-12-14T02:54:08.495Z,0
2018-12-14T02:55:09.156Z,0
2018-12-14T02:56:10.149Z,0
2018-12-14T02:57:10.843Z,0
2018-12-14T02:58:11.830Z,0
2018-12-14T02:59:12.531Z,0
2018-12-14T03:00:13.227Z,0
2018-12-14T03:01:12.918Z,0
2018-12-14T03:02:13.897Z,0
2018-12-14T03:03:14.594Z,0
2018-12-14T03:04:15.453Z,0
2018-12-14T03:05:15.893Z,0
2018-12-14T03:06:16.306Z,0
2018-12-14T03:07:17.557Z,0
2018-12-14T03:08:17.273Z,0
2018-12-14T03:09:19.245Z,0
2018-12-14T03:10:19.773Z,0
2018-12-14T03:11:19.740Z,0
2018-12-14T03:12:32.182Z,0
2018-12-14T03:13:33.317Z,0
2018-12-14T03:14:33.578Z,0
2018-12-14T03:15:33.312Z,0
2018-12-14T03:16:34.581Z,0
2018-12-14T03:17:35.674Z,0
2018-12-14T03:18:37.216Z,0
2018-12-14T03:19:37.631Z,0
2018-12-14T03:20:38.886Z,0
2018-12-14T03:21:39.856Z,0
2018-12-14T03:22:40.602Z,0
2018-12-14T03:23:40.713Z,0
2018-12-14T03:24:42.434Z,0
2018-12-14T03:25:42.125Z,0
2018-12-14T03:26:43.938Z,0
2018-12-14T03:27:43.909Z,0
2018-12-14T03:28:44.885Z,0
2018-12-14T03:29:45.863Z,0
2018-12-14T03:30:47.135Z,0
2018-12-14T03:31:47.487Z,0
2018-12-14T03:32:48.349Z,0
2018-12-14T03:33:49.025Z,0
2018-12-14T03:34:49.439Z,0
2018-12-14T03:35:50.965Z,0
2018-12-14T03:36:51.656Z,0
2018-12-14T03:37:52.073Z,0
2018-12-14T03:38:52.766Z,0
2018-12-14T03:39:53.736Z,0
2018-12-14T03:40:55.000Z,0
2018-12-14T03:41:55.702Z,0
2018-12-14T03:42:55.849Z,0
2018-12-14T03:43:56.531Z,0
2018-12-14T03:44:56.780Z,0
2018-12-14T03:45:57.764Z,0
2018-12-14T03:46:58.177Z,0
2018-12-14T03:47:58.315Z,0
2018-12-14T03:49:00.318Z,0
2018-12-14T03:50:00.289Z,0
2018-12-14T03:51:00.980Z,0
2018-12-14T03:52:01.397Z,0
2018-12-14T03:53:02.945Z,0
2018-12-14T03:54:03.875Z,0
2018-12-14T03:55:04.846Z,0
2018-12-14T03:56:05.092Z,0
2018-12-14T03:57:05.934Z,0
2018-12-14T03:58:06.654Z,0
2018-12-14T03:59:06.900Z,0
2018-12-14T04:00:07.337Z,0
2018-12-14T04:01:08.868Z,0
2018-12-14T04:02:10.118Z,0
2018-12-14T04:03:10.811Z,0
2018-12-14T04:04:11.795Z,0
2018-12-14T04:05:12.501Z,0
2018-12-14T04:06:12.653Z,0
2018-12-14T04:07:13.735Z,0
2018-12-14T04:08:13.736Z,0
2018-12-14T04:09:14.762Z,0
2018-12-14T04:10:16.018Z,0
2018-12-14T04:11:15.998Z,0
2018-12-14T04:12:16.973Z,0
2018-12-14T04:13:16.962Z,0
2018-12-14T04:14:17.064Z,0
2018-12-14T04:15:17.756Z,0
2018-12-14T04:16:18.574Z,0
2018-12-14T04:17:18.825Z,0
2018-12-14T04:18:19.529Z,0
2018-12-14T04:19:19.951Z,0
2018-12-14T04:20:20.652Z,0
2018-12-14T04:21:21.359Z,0
2018-12-14T04:22:21.781Z,0
2018-12-14T04:23:22.765Z,0
2018-12-14T04:24:23.707Z,0
2018-12-14T04:25:23.976Z,0
2018-12-14T04:26:24.670Z,0
2018-12-14T04:27:25.085Z,0
2018-12-14T04:28:25.782Z,0
2018-12-14T04:29:27.312Z,0
2018-12-14T04:30:27.581Z,0
2018-12-14T04:31:27.840Z,0
2018-12-14T04:32:27.987Z,0
2018-12-14T04:33:29.454Z,0
2018-12-14T04:34:30.295Z,0
2018-12-14T04:35:30.716Z,0
2018-12-14T04:36:33.105Z,0
2018-12-14T04:37:32.821Z,0
2018-12-14T04:38:33.803Z,0
2018-12-14T04:39:34.224Z,0
2018-12-14T04:40:34.638Z,0
2018-12-14T04:41:35.611Z,0
2018-12-14T04:42:36.034Z,0
2018-12-14T04:43:37.285Z,0
2018-12-14T04:44:37.416Z,0
2018-12-14T04:45:38.389Z,0
2018-12-14T04:46:38.804Z,0
2018-12-14T04:47:40.084Z,0
2018-12-14T04:48:40.055Z,0
2018-12-14T04:49:41.053Z,0
2018-12-14T04:50:41.743Z,0
2018-12-14T04:51:42.439Z,0
2018-12-14T04:52:42.408Z,0
2018-12-14T04:53:42.944Z,0
2018-12-14T04:54:44.262Z,0
2018-12-14T04:55:43.680Z,0
2018-12-14T04:56:44.660Z,0
2018-12-14T04:57:45.398Z,0
2018-12-14T04:58:45.648Z,0
2018-12-14T04:59:45.790Z,0
2018-12-14T05:00:47.091Z,0
2018-12-14T05:01:48.063Z,0
2018-12-14T05:02:48.046Z,0
2018-12-14T05:03:49.036Z,0
2018-12-14T05:04:50.559Z,0
2018-12-14T05:05:50.252Z,0
2018-12-14T05:06:51.244Z,0
2018-12-14T05:07:51.935Z,0
2018-12-14T05:08:52.629Z,0
2018-12-14T05:09:54.157Z,0
2018-12-14T05:10:54.128Z,0
2018-12-14T05:11:54.543Z,0
2018-12-14T05:12:59.073Z,0
2018-12-14T05:13:59.107Z,0
2018-12-14T05:15:00.431Z,0
2018-12-14T05:16:01.415Z,0
2018-12-14T05:17:01.106Z,0
2018-12-14T05:18:01.798Z,0
2018-12-14T05:19:02.846Z,0
2018-12-14T05:20:03.842Z,0
2018-12-14T05:21:04.815Z,0
2018-12-14T05:22:04.953Z,0
2018-12-14T05:23:06.364Z,0
2018-12-14T05:24:07.339Z,0
2018-12-14T05:25:08.158Z,0
2018-12-14T05:26:08.854Z,0
2018-12-14T05:27:09.550Z,0
2018-12-14T05:28:10.309Z,0
2018-12-14T05:29:10.721Z,0
2018-12-14T05:30:10.853Z,0
2018-12-14T05:31:12.393Z,0
2018-12-14T05:32:13.366Z,0
2018-12-14T05:33:13.782Z,0
2018-12-14T05:34:14.754Z,0
2018-12-14T05:35:14.853Z,0
2018-12-14T05:36:16.112Z,0
2018-12-14T05:37:15.803Z,0
2018-12-14T05:38:17.497Z,0
2018-12-14T05:39:18.194Z,0
2018-12-14T05:40:18.888Z,0
2018-12-14T05:41:19.301Z,0
2018-12-14T05:42:20.444Z,0
2018-12-14T05:43:22.134Z,0
2018-12-14T05:44:22.831Z,0
2018-12-14T05:45:23.177Z,0
2018-12-14T05:46:24.653Z,0
2018-12-14T05:47:25.070Z,0
2018-12-14T05:48:26.040Z,0
2018-12-14T05:49:27.011Z,0
2018-12-14T05:50:28.258Z,0
2018-12-14T05:51:28.951Z,0
2018-12-14T05:52:29.368Z,0
2018-12-14T05:53:30.064Z,0
2018-12-14T05:54:30.755Z,0
2018-12-14T05:55:31.330Z,0
2018-12-14T05:56:31.743Z,0
2018-12-14T05:57:32.735Z,0
2018-12-14T05:58:33.706Z,0
2018-12-14T05:59:34.124Z,0
2018-12-14T06:00:35.095Z,0
2018-12-14T06:01:35.234Z,0
2018-12-14T06:02:35.927Z,0
2018-12-14T06:03:36.622Z,0
2018-12-14T06:04:37.038Z,0
2018-12-14T06:05:38.162Z,0
2018-12-14T06:06:39.852Z,0
2018-12-14T06:07:40.279Z,0
2018-12-14T06:08:41.522Z,0
2018-12-14T06:09:41.264Z,0
2018-12-14T06:10:41.682Z,0
2018-12-14T06:11:42.375Z,0
2018-12-14T06:12:43.068Z,0
2018-12-14T06:13:43.487Z,0
2018-12-14T06:14:44.181Z,0
2018-12-14T06:15:44.578Z,0
2018-12-14T06:16:45.992Z,0
2018-12-14T06:17:46.400Z,0
2018-12-14T06:18:47.814Z,0
2018-12-14T06:19:48.788Z,0
2018-12-14T06:20:49.479Z,0
2018-12-14T06:21:49.894Z,0
2018-12-14T06:22:50.312Z,0
2018-12-14T06:23:50.999Z,0
2018-12-14T06:24:51.414Z,0
2018-12-14T06:25:51.708Z,0
2018-12-14T06:26:53.954Z,4
2018-12-14T06:27:53.647Z,4
2018-12-14T06:28:54.095Z,0
2018-12-14T06:29:54.785Z,0
2018-12-14T06:30:56.202Z,4
2018-12-14T06:31:56.894Z,4
2018-12-14T06:32:56.873Z,4
2018-12-14T06:33:58.285Z,4
2018-12-14T06:34:58.975Z,4
2018-12-14T06:35:58.894Z,8
2018-12-14T06:36:59.032Z,8
2018-12-14T06:38:00.725Z,8
2018-12-14T06:39:00.862Z,8
2018-12-14T06:40:02.558Z,12
2018-12-14T06:41:03.813Z,16
2018-12-14T06:42:04.232Z,16
2018-12-14T06:43:05.164Z,20
2018-12-14T06:44:05.979Z,24
2018-12-14T06:45:06.910Z,24
2018-12-14T06:46:07.185Z,32
2018-12-14T06:47:07.942Z,32
2018-12-14T06:48:08.529Z,36
2018-12-14T06:49:09.666Z,40
2018-12-14T06:50:10.120Z,40
2018-12-14T06:51:10.543Z,48
2018-12-14T06:52:11.685Z,52
2018-12-14T06:53:12.833Z,56
2018-12-14T06:54:13.534Z,60
2018-12-14T06:55:13.971Z,64
2018-12-14T06:56:14.578Z,72
2018-12-14T06:57:15.309Z,76
2018-12-14T06:58:15.002Z,84
2018-12-14T06:59:15.748Z,96
2018-12-14T07:00:16.726Z,100
2018-12-14T07:01:17.545Z,108
2018-12-14T07:02:18.242Z,116
2018-12-14T07:03:18.935Z,124
2018-12-14T07:04:19.459Z,136
2018-12-14T07:05:19.913Z,140
2018-12-14T07:06:21.125Z,148
2018-12-14T07:07:22.100Z,160
2018-12-14T07:08:22.914Z,168
2018-12-14T07:09:23.686Z,176
2018-12-14T07:10:23.951Z,188
2018-12-14T07:11:26.815Z,200
2018-12-14T07:12:26.220Z,212
2018-12-14T07:13:26.916Z,228
2018-12-14T07:14:27.343Z,240
2018-12-14T07:15:27.767Z,252
2018-12-14T07:16:28.616Z,272
2018-12-14T07:17:28.756Z,292
2018-12-14T07:18:29.175Z,308
2018-12-14T07:19:30.588Z,328
2018-12-14T07:20:31.564Z,348
2018-12-14T07:21:31.984Z,376
2018-12-14T07:22:32.695Z,404
2018-12-14T07:23:33.907Z,436
2018-12-14T07:24:35.321Z,464
2018-12-14T07:25:36.550Z,484
2018-12-14T07:26:37.534Z,516
2018-12-14T07:27:38.034Z,540
2018-12-14T07:28:38.527Z,564
2018-12-14T07:29:39.240Z,592
2018-12-14T07:30:39.212Z,632
2018-12-14T07:31:39.663Z,664
2018-12-14T07:32:40.086Z,712
2018-12-14T07:33:40.782Z,764
2018-12-14T07:34:41.503Z,828
2018-12-14T07:35:44.160Z,892
2018-12-14T07:36:45.100Z,944
2018-12-14T07:37:46.363Z,980
2018-12-14T07:38:51.714Z,1012
2018-12-14T07:39:50.932Z,1052
2018-12-14T07:40:51.379Z,1104
2018-12-14T07:41:52.075Z,1192
2018-12-14T07:42:53.047Z,1272
2018-12-14T07:43:52.918Z,1292
2018-12-14T07:44:55.169Z,1308
2018-12-14T07:45:53.682Z,1352
2018-12-14T07:46:54.344Z,1396
2018-12-14T07:47:55.882Z,1408
2018-12-14T07:48:56.779Z,1444
2018-12-14T07:49:56.481Z,1548
2018-12-14T07:50:57.454Z,1700
2018-12-14T07:51:58.715Z,1808
2018-12-14T07:52:59.295Z,1892
2018-12-14T07:53:59.995Z,2000
2018-12-14T07:55:00.691Z,2084
2018-12-14T07:56:01.110Z,2160
2018-12-14T07:57:01.761Z,2292
2018-12-14T07:58:02.326Z,2484
2018-12-14T07:59:03.026Z,2676
2018-12-14T08:00:04.007Z,2804
2018-12-14T08:01:05.256Z,2872
2018-12-14T08:02:06.354Z,2964
2018-12-14T08:03:06.559Z,3120
2018-12-14T08:04:07.573Z,3312
2018-12-14T08:05:08.843Z,3580
2018-12-14T08:06:09.262Z,3932
2018-12-14T08:07:10.209Z,4308
2018-12-14T08:08:11.929Z,4640
2018-12-14T08:09:12.975Z,4760
2018-12-14T08:10:13.704Z,4832
2018-12-14T08:11:15.122Z,4900
2018-12-14T08:12:15.820Z,5364
2018-12-14T08:13:16.240Z,8236
2018-12-14T08:14:16.922Z,15040
2018-12-14T08:15:17.279Z,15488
2018-12-14T08:16:18.020Z,17888
2018-12-14T08:17:19.410Z,17504
2018-12-14T08:18:18.861Z,24544
2018-12-14T08:19:20.006Z,26400
2018-12-14T08:20:21.433Z,13660
2018-12-14T08:21:22.127Z,6060
2018-12-14T08:22:22.603Z,4604
2018-12-14T08:23:23.213Z,4380
2018-12-14T08:24:24.477Z,4192
2018-12-14T08:25:25.766Z,4060
2018-12-14T08:26:26.052Z,3988
2018-12-14T08:27:26.628Z,3964
2018-12-14T08:28:26.783Z,3992
2018-12-14T08:29:27.516Z,4192
2018-12-14T08:30:28.368Z,5700
2018-12-14T08:31:28.864Z,5488
2018-12-14T08:32:29.675Z,11764
2018-12-14T08:33:30.656Z,15648
2018-12-14T08:34:31.077Z,9204
2018-12-14T08:35:31.498Z,8140
2018-12-14T08:36:31.928Z,20896
2018-12-14T08:37:32.759Z,33248
2018-12-14T08:38:34.748Z,31872
2018-12-14T08:39:35.190Z,23584
2018-12-14T08:40:35.617Z,17312
2018-12-14T08:41:40.640Z,8200
2018-12-14T08:42:38.329Z,6700
2018-12-14T08:43:43.221Z,9016
2018-12-14T08:44:44.202Z,13040
2018-12-14T08:45:44.346Z,18528
2018-12-14T08:46:45.337Z,17088
2018-12-14T08:47:45.724Z,19328
2018-12-14T08:48:45.876Z,17792
2018-12-14T08:49:47.149Z,11704
2018-12-14T08:50:48.361Z,7244
2018-12-14T08:51:48.820Z,9704
2018-12-14T08:52:50.239Z,13648
2018-12-14T08:53:51.286Z,19648
2018-12-14T08:54:52.985Z,22208
2018-12-14T08:55:53.691Z,22144
2018-12-14T08:56:54.669Z,21248
2018-12-14T08:57:55.910Z,15136
2018-12-14T08:58:56.065Z,8716
2018-12-14T08:59:56.765Z,7676
2018-12-14T09:00:57.194Z,7468
2018-12-14T09:01:57.935Z,8456
2018-12-14T09:02:58.119Z,8560
2018-12-14T09:03:58.827Z,8356
2018-12-14T09:04:59.249Z,9124
2018-12-14T09:06:00.231Z,10064
2018-12-14T09:07:00.373Z,10684
2018-12-14T09:08:01.221Z,16256
2018-12-14T09:09:01.961Z,15616
2018-12-14T09:10:02.216Z,12240
2018-12-14T09:11:02.046Z,12972
2018-12-14T09:12:02.762Z,19840
2018-12-14T09:13:03.252Z,19712
2018-12-14T09:14:03.747Z,15712
2018-12-14T09:15:05.042Z,11332
2018-12-14T09:16:06.444Z,10844
2018-12-14T09:17:06.864Z,12908
2018-12-14T09:18:07.826Z,17920
2018-12-14T09:19:08.310Z,18656
2018-12-14T09:20:10.046Z,19840
2018-12-14T09:21:11.028Z,21408
2018-12-14T09:22:11.728Z,24864
2018-12-14T09:23:11.874Z,27776
2018-12-14T09:24:12.293Z,22240
2018-12-14T09:25:13.715Z,12420
2018-12-14T09:26:13.864Z,15712
2018-12-14T09:27:15.013Z,16032
2018-12-14T09:28:15.844Z,16896
2018-12-14T09:29:16.260Z,16512
2018-12-14T09:30:17.718Z,20704
2018-12-14T09:31:18.424Z,19328
2018-12-14T09:32:18.565Z,49760
2018-12-14T09:33:20.462Z,15576
2018-12-14T09:34:20.887Z,14644
2018-12-14T09:35:21.592Z,29504
2018-12-14T09:36:22.571Z,22272
2018-12-14T09:37:23.000Z,25984
2018-12-14T09:38:24.113Z,12160
2018-12-14T09:39:24.269Z,14572
2018-12-14T09:40:24.989Z,45632
2018-12-14T09:41:25.965Z,34080
2018-12-14T09:42:26.732Z,37600
2018-12-14T09:43:27.990Z,31168
2018-12-14T09:44:27.414Z,11132
2018-12-14T09:45:28.128Z,13808
2018-12-14T09:46:28.552Z,16704
2018-12-14T09:47:29.982Z,20352
2018-12-14T09:48:30.472Z,24992
2018-12-14T09:49:31.338Z,31008
2018-12-14T09:50:31.924Z,40032
2018-12-14T09:51:32.645Z,48128
2018-12-14T09:52:33.071Z,29984
2018-12-14T09:53:34.499Z,18880
2018-12-14T09:54:35.754Z,56288
2018-12-14T09:55:35.735Z,41344
2018-12-14T09:56:35.893Z,21824
2018-12-14T09:57:37.039Z,15516
2018-12-14T09:58:38.614Z,29536
2018-12-14T09:59:39.320Z,37920
2018-12-14T10:00:40.034Z,27136
2018-12-14T10:01:40.365Z,16448
2018-12-14T10:02:41.224Z,13880
2018-12-14T10:03:41.833Z,15912
2018-12-14T10:04:42.975Z,28992
2018-12-14T10:05:43.678Z,55808
2018-12-14T10:06:44.660Z,58496
2018-12-14T10:07:48.831Z,59424
2018-12-14T10:08:50.278Z,58432
2018-12-14T10:09:50.454Z,59360
2018-12-14T10:10:50.879Z,59296
2018-12-14T10:11:57.192Z,63008
2018-12-14T10:12:57.351Z,66432
2018-12-14T10:14:02.523Z,62464
2018-12-14T10:15:03.950Z,45344
2018-12-14T10:16:04.380Z,51424
2018-12-14T10:17:05.085Z,63552
2018-12-14T10:18:06.260Z,60096
2018-12-14T10:19:07.130Z,63776
2018-12-14T10:20:07.844Z,64640
2018-12-14T10:21:08.280Z,57216
2018-12-14T10:22:09.708Z,48032
2018-12-14T10:23:10.425Z,43712
2018-12-14T10:24:10.894Z,34976
2018-12-14T10:25:12.601Z,35968
2018-12-14T10:26:13.307Z,40000
2018-12-14T10:27:15.033Z,43296
2018-12-14T10:28:15.421Z,49440
2018-12-14T10:29:16.064Z,51328
2018-12-14T10:30:18.164Z,50400
2018-12-14T10:31:17.595Z,43648
2018-12-14T10:32:19.576Z,40512
2018-12-14T10:33:20.139Z,37024
2018-12-14T10:34:21.314Z,41472
2018-12-14T10:35:21.139Z,47008
2018-12-14T10:36:21.842Z,51680
2018-12-14T10:37:23.159Z,53472
2018-12-14T10:38:23.872Z,55520
2018-12-14T10:39:24.548Z,60320
2018-12-14T10:40:24.763Z,56832
2018-12-14T10:41:25.916Z,53760
2018-12-14T10:42:26.906Z,57376
2018-12-14T10:43:27.231Z,58144
2018-12-14T10:44:31.938Z,61824
2018-12-14T10:45:32.654Z,63072
2018-12-14T10:46:33.592Z,61600
2018-12-14T10:47:33.846Z,61408
2018-12-14T10:48:35.248Z,62752
2018-12-14T10:49:36.111Z,62112
2018-12-14T10:50:41.171Z,58624
2018-12-14T10:51:42.322Z,56288
2018-12-14T10:52:44.308Z,57824
2018-12-14T10:53:45.418Z,57920
2018-12-14T10:54:45.133Z,57888
2018-12-14T10:55:46.020Z,56416
2018-12-14T10:56:47.606Z,56544
2018-12-14T10:57:49.943Z,57632
2018-12-14T10:58:48.355Z,55808
2018-12-14T10:59:49.926Z,54848
2018-12-14T11:00:52.100Z,53088
2018-12-14T11:01:52.198Z,42592
2018-12-14T11:02:53.262Z,34432
2018-12-14T11:03:53.306Z,33856
2018-12-14T11:04:53.737Z,39456
2018-12-14T11:05:54.194Z,43136
2018-12-14T11:06:55.993Z,40672
2018-12-14T11:07:56.971Z,30240
2018-12-14T11:08:56.694Z,36352
2018-12-14T11:09:57.610Z,53760
2018-12-14T11:10:58.765Z,55200
2018-12-14T11:12:00.194Z,55392
2018-12-14T11:13:00.649Z,55168
2018-12-14T11:14:01.458Z,53600
2018-12-14T11:15:03.801Z,54880
2018-12-14T11:16:03.779Z,49824
2018-12-14T11:17:04.757Z,37184
2018-12-14T11:18:04.468Z,21984
2018-12-14T11:19:05.450Z,31456
2018-12-14T11:20:06.765Z,48608
2018-12-14T11:21:07.198Z,48480
2018-12-14T11:22:07.906Z,50816
2018-12-14T11:23:08.346Z,51008
2018-12-14T11:24:09.055Z,48224
2018-12-14T11:25:10.809Z,50656
2018-12-14T11:26:11.454Z,47200
2018-12-14T11:27:11.607Z,28704
2018-12-14T11:28:13.037Z,29472
2018-12-14T11:29:13.189Z,25984
2018-12-14T11:30:14.883Z,11484
2018-12-14T11:31:14.896Z,11264
2018-12-14T11:32:15.325Z,22624
2018-12-14T11:33:15.750Z,43392
2018-12-14T11:34:16.903Z,42784
2018-12-14T11:35:17.337Z,25728
2018-12-14T11:36:18.485Z,14444
2018-12-14T11:37:19.634Z,11656
2018-12-14T11:38:20.337Z,12168
2018-12-14T11:39:20.549Z,25408
2018-12-14T11:40:21.299Z,43008
2018-12-14T11:41:21.542Z,42016
2018-12-14T11:42:22.714Z,42240
2018-12-14T11:43:23.421Z,39808
2018-12-14T11:44:24.125Z,22944
2018-12-14T11:45:25.349Z,13204
2018-12-14T11:46:26.387Z,12068
2018-12-14T11:47:28.414Z,22912
2018-12-14T11:48:28.250Z,24832
2018-12-14T11:49:28.715Z,25024
2018-12-14T11:50:29.897Z,24064
2018-12-14T11:51:31.603Z,17696
2018-12-14T11:52:31.825Z,20896
2018-12-14T11:53:32.322Z,24928
2018-12-14T11:54:33.856Z,24672
2018-12-14T11:55:33.957Z,26400
2018-12-14T11:56:34.662Z,19328
2018-12-14T11:57:34.822Z,14816
2018-12-14T11:58:36.528Z,20544
2018-12-14T11:59:36.953Z,19424
2018-12-14T12:00:37.559Z,20096
2018-12-14T12:01:38.042Z,16928
2018-12-14T12:02:45.459Z,17472
2018-12-14T12:02:51.465Z,17856
2018-12-14T12:03:51.857Z,25312
2018-12-14T12:04:53.317Z,31904
2018-12-14T12:05:53.792Z,30912
2018-12-14T12:06:55.492Z,29760
2018-12-14T12:07:56.405Z,27200
2018-12-14T12:08:57.092Z,28160
2018-12-14T12:09:58.673Z,30848
2018-12-14T12:10:58.897Z,29184
2018-12-14T12:12:00.047Z,29120
2018-12-14T12:13:00.006Z,29728
2018-12-14T12:14:00.851Z,29568
2018-12-14T12:15:01.910Z,32960
2018-12-14T12:16:02.968Z,32384
2018-12-14T12:17:03.240Z,29184
2018-12-14T12:18:04.571Z,23904
2018-12-14T12:19:05.025Z,13184
2018-12-14T12:20:05.234Z,14304
2018-12-14T12:21:06.102Z,12100
2018-12-14T12:22:08.365Z,17216
2018-12-14T12:23:08.994Z,18592
2018-12-14T12:24:07.780Z,18848
2018-12-14T12:25:08.978Z,13160
2018-12-14T12:26:09.331Z,8040
2018-12-14T12:27:09.484Z,7512
2018-12-14T12:28:12.734Z,17600
2018-12-14T12:29:11.939Z,13188
2018-12-14T12:30:12.656Z,8476
2018-12-14T12:31:15.227Z,5608
2018-12-14T12:32:15.216Z,5336
2018-12-14T12:33:16.089Z,5124
2018-12-14T12:34:17.254Z,5192
2018-12-14T12:35:17.894Z,5036
2018-12-14T12:36:18.710Z,5476
2018-12-14T12:37:20.132Z,6288
2018-12-14T12:38:20.252Z,6328
2018-12-14T12:39:21.359Z,4912
2018-12-14T12:40:24.176Z,4360
2018-12-14T12:41:25.714Z,4232
2018-12-14T12:42:24.372Z,4148
2018-12-14T12:43:25.443Z,4096
2018-12-14T12:44:25.421Z,4020
2018-12-14T12:45:26.679Z,3956
2018-12-14T12:46:27.423Z,3936
2018-12-14T12:47:27.845Z,3836
2018-12-14T12:48:29.105Z,3744
2018-12-14T12:49:29.246Z,3684
2018-12-14T12:50:34.720Z,3624
2018-12-14T12:50:41.613Z,3624
2018-12-14T12:51:42.238Z,3564
2018-12-14T12:52:42.938Z,3516
2018-12-14T12:53:44.418Z,3484
2018-12-14T12:54:44.849Z,3492
2018-12-14T12:55:45.121Z,3516
2018-12-14T12:56:46.687Z,3500
2018-12-14T12:57:47.115Z,3468
2018-12-14T12:58:47.816Z,3408
2018-12-14T12:59:48.248Z,3360
2018-12-14T13:00:51.952Z,3332
2018-12-14T13:01:49.873Z,3364
2018-12-14T13:02:51.759Z,3384
2018-12-14T13:03:57.508Z,3444
2018-12-14T13:04:08.047Z,3444
2018-12-14T13:04:18.632Z,3456
2018-12-14T13:05:19.614Z,3424
2018-12-14T13:06:19.392Z,3336
2018-12-14T13:07:21.325Z,3264
2018-12-14T13:08:21.954Z,3232
2018-12-14T13:09:22.905Z,3196
2018-12-14T13:10:22.899Z,3144
2018-12-14T13:11:23.025Z,3024
2018-12-14T13:12:23.176Z,2880
2018-12-14T13:13:24.316Z,2808
2018-12-14T13:14:25.582Z,2744
2018-12-14T13:15:26.462Z,2684
2018-12-14T13:16:26.887Z,2656
2018-12-14T13:17:33.187Z,2592
2018-12-14T13:17:41.610Z,2580
2018-12-14T13:18:40.454Z,2484
2018-12-14T13:19:41.157Z,2448
2018-12-14T13:20:41.303Z,2492
2018-12-14T13:21:41.734Z,2608
2018-12-14T13:22:42.708Z,2736
2018-12-14T13:23:43.852Z,2820
2018-12-14T13:24:44.372Z,2864
2018-12-14T13:25:44.519Z,2920
2018-12-14T13:26:47.435Z,2980
2018-12-14T13:27:48.087Z,3024
2018-12-14T13:28:47.508Z,3048
2018-12-14T13:29:48.204Z,3008
2018-12-14T13:30:51.706Z,2884
2018-12-14T13:31:52.825Z,2752
2018-12-14T13:32:58.233Z,2592
2018-12-14T13:33:09.790Z,2564
2018-12-14T13:33:22.388Z,2532
2018-12-14T13:33:31.998Z,2508
2018-12-14T13:33:43.028Z,2484
2018-12-14T13:34:42.213Z,2360
2018-12-14T13:35:43.353Z,2212
2018-12-14T13:36:43.776Z,2044
2018-12-14T13:37:44.238Z,1920
2018-12-14T13:38:45.020Z,1816
2018-12-14T13:39:45.789Z,1740
2018-12-14T13:40:47.398Z,1664
2018-12-14T13:41:47.668Z,1616
2018-12-14T13:42:48.416Z,1580
2018-12-14T13:43:50.023Z,1528
2018-12-14T13:44:51.186Z,1480
2018-12-14T13:45:55.186Z,1432
2018-12-14T13:46:54.940Z,1400
2018-12-14T13:47:57.975Z,1372
2018-12-14T13:48:55.754Z,1352
2018-12-14T13:49:09.803Z,1344
2018-12-14T13:50:10.857Z,1328
2018-12-14T13:51:11.571Z,1304
2018-12-14T13:52:12.276Z,1284
2018-12-14T13:53:12.533Z,1248
2018-12-14T13:54:13.233Z,1220
2018-12-14T13:55:13.656Z,1192
2018-12-14T13:56:19.747Z,1164